Latest Weather Observations for Holsworthy

IDN60901

Issued at 10:01 pm EST Sunday 30 August 2015 (issued every 10 minutes, with the page automatically refreshed every 10 minutes)

About weather observations | Map of Sydney area stations | Latest observations for Sydney area | Other Formats
Station Details ID: 066161 Name: HOLSWORTHY AERODROME AWS Lat: -33.99 Lon: 150.95 Height: 68.16 m
Data from the previous 72 hours. | See also: Recent months at Holsworthy
Date/Time
EST
Tmp

°C
App
Tmp
°C
Dew
Point
°C
Rel
Hum
%
Delta-T

°C
Wind Press
QNH
hPa
Press
MSL
hPa
Rain
since
9 am
mm
Dir
 
Spd
km/h
Gust
km/h
Spd
kts
Gust
kts
30/10:00pm 10.2 7.4 6.9 80 1.6 WSW 11 13 6 7 1019.1 1019.1 0.0
30/09:30pm 10.2 7.3 6.7 79 1.6 WSW 11 13 6 7 1019.0 1019.0 0.0
30/09:00pm 11.3 8.4 6.6 73 2.2 SSW 11 15 6 8 1018.9 1018.9 0.0
30/08:30pm 12.1 9.3 7.0 71 2.5 S 11 20 6 11 1018.8 1018.8 0.0
30/08:00pm 12.2 9.5 7.3 72 2.4 S 11 20 6 11 1018.6 1018.6 0.0
30/07:30pm 11.8 9.8 6.9 72 2.3 S 7 11 4 6 1018.5 1018.5 0.0
30/07:00pm 12.0 9.5 6.7 70 2.5 SSE 9 11 5 6 1018.4 1018.4 0.0
30/06:30pm 12.4 9.9 6.7 68 2.7 SSE 9 13 5 7 1018.1 1018.1 0.0
30/06:00pm 12.9 10.0 6.5 65 3.1 SSE 11 15 6 8 1018.0 1018.0 0.0
30/05:30pm 13.5 10.2 6.4 62 3.4 SSE 13 19 7 10 1017.8 1017.8 0.0
30/05:00pm 14.3 10.6 6.2 58 3.9 SSE 15 24 8 13 1017.6 1017.6 0.0
30/04:30pm 14.6 10.2 6.4 58 4.0 SSE 19 26 10 14 1017.6 1017.6 0.0
30/04:00pm 15.3 10.7 6.6 56 4.2 SSE 20 26 11 14 1017.5 1017.5 0.0
30/03:30pm 16.4 12.1 7.1 54 4.6 SSE 19 28 10 15 1017.4 1017.4 0.0
30/03:00pm 16.3 12.2 6.4 52 4.8 SSE 17 22 9 12 1017.5 1017.5 0.0
30/02:30pm 16.2 12.5 6.3 52 4.8 SSE 15 24 8 13 1017.6 1017.6 0.0
30/02:00pm 16.7 13.5 5.3 47 5.5 SSE 11 19 6 10 1017.6 1017.6 0.0
30/01:30pm 16.5 13.6 6.3 51 5.0 S 11 17 6 9 1017.8 1017.8 0.0
30/01:00pm 16.6 14.1 4.9 46 5.6 SSE 7 11 4 6 1018.1 1018.1 0.0
30/12:30pm 16.3 13.1 5.0 47 5.4 SSE 11 20 6 11 1018.4 1018.4 0.0
30/12:00pm 16.6 13.4 5.3 47 5.4 SSE 11 19 6 10 1018.9 1018.9 0.0
30/11:30am 15.9 12.6 4.6 47 5.3 ESE 11 19 6 10 1019.3 1019.3 0.0
30/11:00am 16.4 13.9 6.5 52 4.8 NNW 9 20 5 11 1019.8 1019.8 0.0
30/10:30am 15.0 11.8 5.2 52 4.6 W 11 17 6 9 1020.0 1020.0 0.0
30/10:00am 14.6 10.7 5.4 54 4.3 WSW 15 20 8 11 1020.2 1020.2 0.0
30/09:30am 13.6 10.4 5.0 56 4.0 WSW 11 17 6 9 1020.3 1020.3 0.0
30/09:00am 12.0 7.5 4.0 58 3.6 WSW 17 22 9 12 1020.4 1020.4 0.0
30/08:30am 10.9 6.8 4.4 64 2.9 WSW 15 22 8 12 1020.4 1020.4 0.0
30/08:00am 9.4 5.2 4.0 69 2.4 WSW 15 20 8 11 1020.3 1020.3 0.0
30/07:30am 7.8 4.3 3.5 74 1.8 WSW 11 15 6 8 1020.2 1020.2 0.0
30/07:00am 6.7 3.5 2.8 76 1.6 WSW 9 13 5 7 1020.0 1020.0 0.0
30/06:30am 5.9 2.6 2.4 78 1.4 WSW 9 13 5 7 1019.7 1019.7 0.0
30/06:00am 6.3 2.6 2.4 76 1.6 SW 11 17 6 9 1019.5 1019.5 0.0
30/05:30am 6.6 2.5 2.5 75 1.7 SW 13 19 7 10 1019.3 1019.3 0.0
30/05:00am 6.2 2.1 2.5 77 1.5 SW 13 17 7 9 1019.1 1019.1 0.0
30/04:30am 5.9 2.6 2.4 78 1.4 WSW 9 13 5 7 1019.2 1019.2 0.0
30/04:00am 6.4 2.7 2.5 76 1.6 WSW 11 17 6 9 1019.1 1019.1 0.0
30/03:30am 6.4 2.7 2.3 75 1.7 WSW 11 15 6 8 1019.2 1019.2 0.0
30/03:00am 6.6 2.9 2.3 74 1.8 WSW 11 15 6 8 1019.4 1019.4 0.0
30/02:30am 6.7 3.3 2.0 72 1.9 W 9 13 5 7 1019.7 1019.7 0.0
30/02:00am 6.9 3.6 2.2 72 1.9 WSW 9 11 5 6 1019.9 1019.9 0.0
30/01:30am 7.0 3.6 2.1 71 2.0 WSW 9 13 5 7 1020.3 1020.3 0.0
30/01:00am 6.9 3.6 2.4 73 1.9 WSW 9 15 5 8 1020.6 1020.6 0.0
30/12:30am 6.9 3.6 2.6 74 1.8 SW 9 17 5 9 1020.7 1020.7 0.0
30/12:00am 6.8 3.2 2.9 76 1.6 SW 11 15 6 8 1020.7 1020.7 0.0
 
Date/Time
EST
Tmp

°C
App
Tmp
°C
Dew
Point
°C
Rel
Hum
%
Delta-T

°C
Wind Press
QNH
hPa
Press
MSL
hPa
Rain
since
9 am
mm
Dir
 
Spd
km/h
Gust
km/h
Spd
kts
Gust
kts
29/11:30pm 6.4 3.1 2.5 76 1.6 SW 9 11 5 6 1020.9 1020.9 0.0
29/11:00pm 7.2 4.3 2.5 72 1.9 W 7 11 4 6 1021.1 1021.1 0.0
29/10:30pm 8.4 4.4 2.6 67 2.4 SW 13 17 7 9 1021.1 1021.1 0.0
29/10:00pm 8.2 4.9 2.4 67 2.4 SW 9 11 5 6 1021.1 1021.1 0.0
29/09:30pm 9.0 5.7 2.6 64 2.7 SW 9 13 5 7 1021.1 1021.1 0.0
29/09:00pm 9.2 5.6 3.0 65 2.6 SW 11 13 6 7 1021.0 1021.0 0.0
29/08:30pm 11.5 7.4 2.0 52 4.1 SSW 13 19 7 10 1020.6 1020.6 0.0
29/08:00pm 11.6 7.5 2.1 52 4.1 SSW 13 19 7 10 1020.3 1020.3 0.0
29/07:30pm 11.9 8.2 2.6 53 4.1 S 11 15 6 8 1019.9 1019.9 0.0
29/07:00pm 12.4 9.2 2.8 52 4.2 SSW 9 13 5 7 1019.5 1019.5 0.0
29/06:30pm 12.5 9.9 3.2 53 4.1 SW 6 9 3 5 1019.1 1019.1 0.0
29/06:00pm 13.7 10.1 2.9 48 4.8 SSW 11 15 6 8 1018.7 1018.7 0.0
29/05:30pm 15.2 11.2 2.7 43 5.6 WSW 13 22 7 12 1018.3 1018.3 0.0
29/05:00pm 16.9 12.9 2.9 39 6.4 WSW 13 22 7 12 1018.0 1018.0 0.0
29/04:30pm 18.0 13.6 2.7 36 7.0 WSW 15 20 8 11 1017.8 1017.8 0.0
29/04:00pm 18.7 14.5 3.7 37 7.1 WSW 15 22 8 12 1017.9 1017.9 0.0
29/03:30pm 19.3 15.3 5.0 39 7.0 WSW 15 22 8 12 1017.8 1017.8 0.0
29/03:00pm 19.0 14.4 3.6 36 7.3 WSW 17 28 9 15 1017.9 1017.9 0.0
29/02:30pm 19.1 14.1 3.7 36 7.3 WSW 19 28 10 15 1018.0 1018.0 0.0
29/02:00pm 18.4 15.0 4.2 39 6.7 W 11 22 6 12 1018.4 1018.4 0.0
29/01:30pm 18.3 15.6 5.5 43 6.2 WNW 9 19 5 10 1018.8 1018.8 0.0
29/01:00pm 17.5 14.0 5.4 45 5.8 WNW 13 20 7 11 1019.4 1019.4 0.0
29/12:30pm 17.1 14.0 5.4 46 5.7 WNW 11 20 6 11 1020.0 1020.0 0.0
29/12:00pm 16.7 13.2 5.6 48 5.3 W 13 20 7 11 1020.7 1020.7 0.0
29/11:30am 16.3 13.3 5.9 50 5.0 WNW 11 19 6 10 1021.3 1021.3 0.0
29/11:00am 15.8 12.4 5.7 51 4.8 W 13 19 7 10 1021.6 1021.6 0.0
29/10:30am 15.0 12.2 5.0 51 4.7 WNW 9 20 5 11 1021.7 1021.7 0.0
29/10:00am 14.4 11.3 5.5 55 4.2 NW 11 17 6 9 1021.9 1021.9 0.0
29/09:30am 13.6 11.6 7.2 65 3.1 NW 7 11 4 6 1022.2 1022.2 0.0
29/09:00am 11.8 9.9 7.5 75 2.1 WNW 7 11 4 6 1022.5 1022.5 0.0
29/08:30am 10.6 8.8 8.0 84 1.3 NNW 7 9 4 5 1023.0 1023.0 0.0
29/08:00am 9.5 7.5 6.4 81 1.4 WSW 6 6 3 3 1022.8 1022.8 0.0
29/07:30am 8.1 6.2 6.7 91 0.6 S 6 6 3 3 1022.7 1022.7 0.0
29/07:00am 6.3 4.9 5.4 94 0.4 SE 2 6 1 3 1022.6 1022.6 0.0
29/06:30am 5.2 3.9 4.3 94 0.4 CALM 0 0 0 0 1022.3 1022.3 0.0
29/06:00am 5.6 4.4 4.7 94 0.4 CALM 0 0 0 0 1022.1 1022.1 0.0
29/05:30am 5.4 3.0 4.2 92 0.5 WSW 6 7 3 4 1021.9 1021.9 0.0
29/05:00am 5.8 3.3 4.6 92 0.5 WSW 7 9 4 5 1021.9 1021.9 0.0
29/04:30am 6.2 3.6 4.4 88 0.8 SW 7 9 4 5 1021.9 1021.9 0.0
29/04:00am 7.2 4.8 5.2 87 0.9 SW 7 9 4 5 1021.8 1021.8 0.0
29/03:30am 8.2 5.5 5.8 85 1.1 SW 9 13 5 7 1021.8 1021.8 0.0
29/03:00am 8.2 5.5 5.5 83 1.2 SW 9 11 5 6 1022.0 1022.0 0.0
29/02:30am 9.6 6.6 6.0 78 1.7 SW 11 15 6 8 1022.1 1022.1 0.0
29/02:00am 9.6 6.7 6.5 81 1.4 SW 11 13 6 7 1022.5 1022.5 0.0
29/01:30am 9.1 6.5 6.2 82 1.3 SW 9 13 5 7 1022.7 1022.7 0.0
29/01:00am 9.2 6.6 5.9 80 1.5 SW 9 11 5 6 1022.8 1022.8 0.0
29/12:30am 9.6 7.0 6.1 79 1.6 SW 9 11 5 6 1022.8 1022.8 0.0
29/12:00am 9.3 6.8 6.7 84 1.2 SW 9 11 5 6 1022.8 1022.8 0.0
 
Date/Time
EST
Tmp

°C
App
Tmp
°C
Dew
Point
°C
Rel
Hum
%
Delta-T

°C
Wind Press
QNH
hPa
Press
MSL
hPa
Rain
since
9 am
mm
Dir
 
Spd
km/h
Gust
km/h
Spd
kts
Gust
kts
28/11:30pm 9.0 6.6 7.0 87 0.9 SW 9 13 5 7 1023.0 1023.0 0.0
28/11:00pm 10.1 7.7 7.2 82 1.4 SW 9 11 5 6 1023.0 1023.0 0.0
28/10:30pm 10.4 8.6 8.0 85 1.2 SW 7 11 4 6 1023.0 1023.0 0.0
28/10:00pm 10.3 8.6 8.2 87 1.0 SW 7 11 4 6 1023.0 1023.0 0.0
28/09:30pm 10.6 9.0 8.7 88 0.9 SSW 7 9 4 5 1023.0 1023.0 0.0
28/09:00pm 10.4 8.8 8.2 86 1.1 SW 6 7 3 4 1022.7 1022.7 0.0
28/08:30pm 10.9 9.2 8.3 84 1.3 WSW 7 11 4 6 1022.5 1022.5 0.0
28/08:00pm 11.8 10.2 8.6 81 1.6 SW 7 9 4 5 1022.2 1022.2 0.0
28/07:30pm 13.0 11.4 8.7 75 2.2 SW 7 9 4 5 1021.8 1021.8 0.0
28/07:00pm 14.2 12.2 8.8 70 2.7 S 9 11 5 6 1021.5 1021.5 0.0
28/06:30pm 14.8 12.9 9.2 69 2.9 SSE 9 13 5 7 1021.2 1021.2 0.0
28/06:00pm 15.2 12.7 9.6 69 2.9 SSE 13 17 7 9 1020.9 1020.9 0.0
28/05:30pm 15.4 12.8 9.5 68 3.1 SE 13 19 7 10 1020.5 1020.5 0.0
28/05:00pm 15.7 13.1 9.4 66 3.3 SSE 13 17 7 9 1020.2 1020.2 0.0
28/04:30pm 16.2 12.2 9.2 63 3.6 SE 20 28 11 15 1019.8 1019.8 0.0
28/04:00pm 17.5 15.1 7.0 50 5.2 S 9 11 5 6 1019.5 1019.5 0.0
28/03:30pm 17.9 14.6 6.4 47 5.7 SW 13 19 7 10 1019.4 1019.4 0.0
28/03:00pm 18.1 15.1 6.0 45 5.9 SW 11 17 6 9 1018.9 1018.9 0.0
28/02:30pm 18.2 13.7 6.1 45 6.0 SW 19 28 10 15 1018.8 1018.8 0.0
28/02:00pm 19.3 14.8 6.8 44 6.3 WSW 20 32 11 17 1018.8 1018.8 0.0
28/01:30pm 18.5 13.4 6.0 44 6.2 SW 22 33 12 18 1018.8 1018.8 0.0
28/01:00pm 18.7 15.0 6.5 45 6.1 SW 15 26 8 14 1018.8 1018.8 0.0
28/12:30pm 18.5 13.8 6.0 44 6.2 WSW 20 28 11 15 1019.2 1019.2 0.0
28/12:00pm 18.3 13.5 5.8 44 6.1 WSW 20 30 11 16 1019.7 1019.7 0.0
28/11:30am 17.8 14.1 7.8 52 5.1 WSW 17 28 9 15 1019.9 1019.9 0.0
28/11:00am 16.8 12.2 6.6 51 5.0 WSW 20 28 11 15 1020.0 1020.0 0.0
28/10:30am 15.9 11.3 6.6 54 4.6 W 20 39 11 21 1020.0 1020.0 0.0
28/10:00am 15.6 10.1 6.1 53 4.6 WSW 24 39 13 21 1019.9 1019.9 0.0
28/09:34am 15.6 9.4 6.1 53 4.6 WSW 28 46 15 25 1020.0 1020.0 0.0
28/09:30am 15.6 10.5 6.1 53 4.6 WSW 22 39 12 21 1020.1 1020.1 0.0
28/09:00am 14.8 10.1 6.1 56 4.2 WSW 20 33 11 18 1019.8 1019.8 0.0
28/08:30am 13.8 9.1 6.2 60 3.6 W 20 30 11 16 1019.5 1019.5 0.0
28/08:00am 12.6 9.2 6.0 64 3.1 W 13 20 7 11 1019.1 1019.1 0.0
28/07:30am 10.8 7.3 5.6 70 2.4 W 13 19 7 10 1018.7 1018.7 0.0
28/07:00am 8.6 5.4 5.0 78 1.6 W 11 17 6 9 1018.1 1018.1 0.0
28/06:30am 7.9 3.8 4.5 79 1.5 W 15 19 8 10 1018.1 1018.1 0.0
28/06:00am 8.6 5.0 5.2 79 1.5 W 13 17 7 9 1018.0 1018.0 0.0
28/05:30am 6.7 3.8 4.4 85 1.0 W 9 11 5 6 1017.5 1017.5 0.0
28/05:00am 7.3 4.4 4.4 82 1.3 W 9 11 5 6 1017.4 1017.4 0.0
28/04:30am 7.4 4.1 4.7 83 1.2 WNW 11 17 6 9 1017.1 1017.1 0.0
28/04:00am 8.2 5.3 4.6 78 1.6 WNW 9 13 5 7 1016.9 1016.9 0.0
28/03:30am 8.2 4.9 4.8 79 1.5 WNW 11 15 6 8 1016.8 1016.8 0.0
28/03:00am 8.0 5.5 4.8 80 1.4 NW 7 11 4 6 1016.8 1016.8 0.0
28/02:30am 8.3 5.8 4.5 77 1.7 NW 7 9 4 5 1017.1 1017.1 0.0
28/02:00am 9.0 6.5 4.8 75 1.9 NW 7 9 4 5 1017.3 1017.3 0.0
28/01:30am 9.6 6.4 5.0 73 2.1 WNW 11 15 6 8 1017.5 1017.5 0.0
28/01:00am 9.6 6.8 5.0 73 2.1 WNW 9 11 5 6 1017.9 1017.9 0.0
28/12:30am 10.4 7.6 5.0 69 2.5 WNW 9 13 5 7 1017.8 1017.8 0.0
28/12:00am 10.6 6.4 5.6 71 2.3 W 17 26 9 14 1017.8 1017.8 0.0
 
Date/Time
EST
Tmp

°C
App
Tmp
°C
Dew
Point
°C
Rel
Hum
%
Delta-T

°C
Wind Press
QNH
hPa
Press
MSL
hPa
Rain
since
9 am
mm
Dir
 
Spd
km/h
Gust
km/h
Spd
kts
Gust
kts
27/11:30pm 9.9 7.2 5.7 75 1.9 W 9 13 5 7 1017.8 1017.8 0.0
27/11:00pm 9.6 7.1 6.5 81 1.4 WSW 9 13 5 7 1018.1 1018.1 0.0
27/10:30pm 8.6 7.7 5.9 83 1.2 CALM 0 7 0 4 1017.9 1017.9 0.0

Latest Capital City Observations: Canberra | Sydney | Melbourne | Brisbane | Adelaide | Perth | Hobart | Darwin

Other Formats:

Comma delimited format used in spreadsheet applications
http://www.bom.gov.au/fwo/IDN60901/IDN60901.95761.axf

JavaScript Object Notation format (JSON) in row-major order
http://www.bom.gov.au/fwo/IDN60901/IDN60901.95761.json